createdAt,value
2018-12-11T08:51:16.346Z,500
2018-12-11T08:52:16.364Z,488
2018-12-11T08:53:16.372Z,412
2018-12-11T08:54:16.395Z,408
2018-12-11T08:55:16.837Z,380
2018-12-11T08:56:16.998Z,292
2018-12-11T08:57:17.025Z,344
2018-12-11T08:58:17.025Z,360
2018-12-11T08:59:17.289Z,260
2018-12-11T09:00:18.200Z,288
2018-12-11T09:01:17.921Z,356
2018-12-11T09:02:18.288Z,396
2018-12-11T09:03:18.329Z,424
2018-12-11T09:04:18.240Z,380
2018-12-11T09:05:18.953Z,324
2018-12-11T09:06:18.948Z,384
2018-12-11T09:07:19.406Z,372
2018-12-11T09:08:19.130Z,336
2018-12-11T09:09:19.861Z,312
2018-12-11T09:10:19.912Z,264
2018-12-11T09:11:19.882Z,276
2018-12-11T09:12:20.289Z,256
2018-12-11T09:13:20.346Z,300
2018-12-11T09:14:20.805Z,364
2018-12-11T09:15:20.939Z,384
2018-12-11T09:16:20.706Z,336
2018-12-11T09:17:21.394Z,388
2018-12-11T09:18:21.455Z,404
2018-12-11T09:19:21.184Z,356
2018-12-11T09:20:21.733Z,364
2018-12-11T09:21:22.182Z,424
2018-12-11T09:22:22.232Z,456
2018-12-11T09:23:22.207Z,460
2018-12-11T09:24:21.986Z,404
2018-12-11T09:25:22.527Z,416
2018-12-11T09:26:22.545Z,332
2018-12-11T09:27:22.506Z,324
2018-12-11T09:28:22.606Z,328
2018-12-11T09:29:22.572Z,408
2018-12-11T09:30:23.080Z,400
2018-12-11T09:31:23.041Z,428
2018-12-11T09:32:23.042Z,372
2018-12-11T09:33:23.070Z,368
2018-12-11T09:34:23.214Z,336
2018-12-11T09:35:23.102Z,360
2018-12-11T09:36:23.004Z,356
2018-12-11T09:37:23.531Z,360
2018-12-11T09:38:23.977Z,288
2018-12-11T09:39:23.964Z,356
2018-12-11T09:40:29.225Z,304
2018-12-11T09:41:23.798Z,340
2018-12-11T09:42:30.054Z,324
2018-12-11T09:43:24.248Z,332
2018-12-11T09:44:24.451Z,412
2018-12-11T09:45:24.933Z,428
2018-12-11T09:46:24.930Z,488
2018-12-11T09:47:24.933Z,480
2018-12-11T09:48:24.957Z,484
2018-12-11T09:49:24.974Z,512
2018-12-11T09:50:25.165Z,536
2018-12-11T09:51:25.341Z,468
2018-12-11T09:52:25.217Z,488
2018-12-11T09:53:25.651Z,516
2018-12-11T09:54:25.688Z,472
2018-12-11T09:55:25.215Z,340
2018-12-11T09:56:26.023Z,312
2018-12-11T09:57:25.566Z,288
2018-12-11T09:58:25.559Z,284
2018-12-11T09:59:30.576Z,328
2018-12-11T10:00:30.778Z,388
2018-12-11T10:01:25.824Z,448
2018-12-11T10:02:25.927Z,492
2018-12-11T10:03:25.852Z,476
2018-12-11T10:04:26.208Z,412
2018-12-11T10:05:26.128Z,340
2018-12-11T10:06:26.169Z,232
2018-12-11T10:07:26.074Z,256
2018-12-11T10:08:26.354Z,292
2018-12-11T10:09:27.011Z,276
2018-12-11T10:10:27.039Z,320
2018-12-11T10:11:27.243Z,336
2018-12-11T10:12:27.461Z,324
2018-12-11T10:13:27.239Z,304
2018-12-11T10:14:27.086Z,280
2018-12-11T10:15:27.984Z,260
2018-12-11T10:16:27.569Z,244
2018-12-11T10:17:27.935Z,240
2018-12-11T10:18:28.328Z,244
2018-12-11T10:19:28.483Z,248
2018-12-11T10:20:29.177Z,272
2018-12-11T10:21:28.657Z,280
2018-12-11T10:22:28.954Z,268
2018-12-11T10:23:34.092Z,244
2018-12-11T10:24:29.389Z,216
2018-12-11T10:25:29.106Z,212
2018-12-11T10:26:29.881Z,216
2018-12-11T10:27:29.806Z,216
2018-12-11T10:28:29.342Z,280
2018-12-11T10:29:30.049Z,264
2018-12-11T10:30:30.202Z,280
2018-12-11T10:31:30.012Z,252
2018-12-11T10:32:30.213Z,240
2018-12-11T10:33:30.360Z,264
2018-12-11T10:34:30.403Z,260
2018-12-11T10:35:30.751Z,236
2018-12-11T10:36:31.197Z,228
2018-12-11T10:37:31.184Z,240
2018-12-11T10:38:31.214Z,228
2018-12-11T10:39:30.969Z,240
2018-12-11T10:40:31.632Z,216
2018-12-11T10:41:31.512Z,228
2018-12-11T10:42:31.784Z,232
2018-12-11T10:43:32.117Z,228
2018-12-11T10:44:31.823Z,204
2018-12-11T10:45:32.450Z,188
2018-12-11T10:46:38.522Z,228
2018-12-11T10:47:32.833Z,260
2018-12-11T10:48:32.409Z,260
2018-12-11T10:49:32.554Z,240
2018-12-11T10:50:32.589Z,228
2018-12-11T10:51:32.974Z,276
2018-12-11T10:52:32.633Z,248
2018-12-11T10:53:32.660Z,308
2018-12-11T10:54:32.817Z,268
2018-12-11T10:55:33.175Z,220
2018-12-11T10:56:33.624Z,184
2018-12-11T10:57:33.011Z,192
2018-12-11T10:58:33.164Z,192
2018-12-11T10:59:33.434Z,208
2018-12-11T11:00:35.205Z,200
2018-12-11T11:01:33.956Z,208
2018-12-11T11:02:34.580Z,224
2018-12-11T11:03:34.359Z,260
2018-12-11T11:04:34.766Z,204
2018-12-11T11:05:34.485Z,240
2018-12-11T11:06:34.885Z,216
2018-12-11T11:07:35.549Z,224
2018-12-11T11:08:35.891Z,220
2018-12-11T11:09:35.432Z,232
2018-12-11T11:10:35.866Z,236
2018-12-11T11:11:36.152Z,228
2018-12-11T11:12:36.552Z,224
2018-12-11T11:13:36.993Z,188
2018-12-11T11:14:37.309Z,208
2018-12-11T11:15:37.346Z,204
2018-12-11T11:16:37.812Z,224
2018-12-11T11:17:37.626Z,256
2018-12-11T11:18:38.271Z,260
2018-12-11T11:19:38.309Z,256
2018-12-11T11:20:38.594Z,240
2018-12-11T11:21:38.346Z,288
2018-12-11T11:22:38.391Z,292
2018-12-11T11:23:38.382Z,328
2018-12-11T11:24:38.164Z,352
2018-12-11T11:25:39.355Z,360
2018-12-11T11:26:38.338Z,376
2018-12-11T11:27:40.082Z,352
2018-12-11T11:28:39.012Z,400
2018-12-11T11:29:38.768Z,312
2018-12-11T11:30:39.146Z,256
2018-12-11T11:31:39.501Z,252
2018-12-11T11:32:39.618Z,260
2018-12-11T11:33:40.014Z,256
2018-12-11T11:34:40.683Z,240
2018-12-11T11:35:40.697Z,240
2018-12-11T11:36:40.725Z,292
2018-12-11T11:37:41.096Z,320
2018-12-11T11:38:41.166Z,260
2018-12-11T11:39:41.159Z,328
2018-12-11T11:40:41.255Z,312
2018-12-11T11:41:41.888Z,244
2018-12-11T11:42:41.939Z,256
2018-12-11T11:43:42.107Z,232
2018-12-11T11:44:42.253Z,204
2018-12-11T11:45:42.648Z,188
2018-12-11T11:46:42.678Z,168
2018-12-11T11:47:42.701Z,160
2018-12-11T11:48:42.842Z,156
2018-12-11T11:49:43.489Z,152
2018-12-11T11:50:43.962Z,172
2018-12-11T11:51:43.035Z,208
2018-12-11T11:52:43.433Z,184
2018-12-11T11:53:44.089Z,172
2018-12-11T11:54:44.455Z,188
2018-12-11T11:55:44.458Z,176
2018-12-11T11:56:44.488Z,164
2018-12-11T11:57:43.755Z,164
2018-12-11T11:58:44.300Z,176
2018-12-11T11:59:44.684Z,188
2018-12-11T12:00:45.314Z,160
2018-12-11T12:01:45.456Z,132
2018-12-11T12:02:45.975Z,136
2018-12-11T12:03:45.980Z,156
2018-12-11T12:04:45.999Z,164
2018-12-11T12:05:46.029Z,160
2018-12-11T12:06:45.804Z,180
2018-12-11T12:07:46.467Z,212
2018-12-11T12:08:46.506Z,224
2018-12-11T12:09:46.677Z,184
2018-12-11T12:10:47.071Z,200
2018-12-11T12:11:47.446Z,220
2018-12-11T12:12:47.628Z,224
2018-12-11T12:13:48.304Z,212
2018-12-11T12:14:53.709Z,216
2018-12-11T12:15:48.490Z,212
2018-12-11T12:16:48.877Z,244
2018-12-11T12:17:48.640Z,268
2018-12-11T12:18:48.676Z,268
2018-12-11T12:19:49.087Z,248
2018-12-11T12:20:49.355Z,300
2018-12-11T12:21:49.337Z,276
2018-12-11T12:22:48.923Z,244
2018-12-11T12:23:49.568Z,228
2018-12-11T12:24:49.340Z,220
2018-12-11T12:25:49.731Z,196
2018-12-11T12:26:49.519Z,196
2018-12-11T12:27:50.161Z,212
2018-12-11T12:28:49.693Z,196
2018-12-11T12:29:50.366Z,212
2018-12-11T12:30:50.348Z,220
2018-12-11T12:31:49.860Z,212
2018-12-11T12:32:50.151Z,200
2018-12-11T12:33:50.764Z,184
2018-12-11T12:34:50.335Z,180
2018-12-11T12:35:50.783Z,208
2018-12-11T12:36:50.987Z,212
2018-12-11T12:37:51.281Z,204
2018-12-11T12:38:50.762Z,224
2018-12-11T12:39:50.914Z,220
2018-12-11T12:40:51.804Z,228
2018-12-11T12:41:51.467Z,216
2018-12-11T12:42:51.495Z,208
2018-12-11T12:43:51.121Z,204
2018-12-11T12:44:51.458Z,232
2018-12-11T12:45:51.909Z,244
2018-12-11T12:46:52.431Z,220
2018-12-11T12:47:51.701Z,232
2018-12-11T12:48:51.834Z,244
2018-12-11T12:49:58.127Z,244
2018-12-11T12:50:58.374Z,224
2018-12-11T12:51:58.412Z,232
2018-12-11T12:52:58.439Z,212
2018-12-11T12:53:58.455Z,216
2018-12-11T12:54:58.915Z,248
2018-12-11T12:55:59.148Z,228
2018-12-11T12:56:58.708Z,208
2018-12-11T12:57:59.100Z,172
2018-12-11T12:58:59.478Z,160
2018-12-11T12:59:59.776Z,160
2018-12-11T13:01:01.140Z,156
2018-12-11T13:02:02.332Z,168
2018-12-11T13:03:02.933Z,136
2018-12-11T13:04:04.003Z,148
2018-12-11T13:05:02.338Z,164
2018-12-11T13:06:03.680Z,132
2018-12-11T13:07:00.310Z,132
2018-12-11T13:08:00.463Z,128
2018-12-11T13:09:00.809Z,136
2018-12-11T13:10:00.654Z,148
2018-12-11T13:11:00.594Z,152
2018-12-11T13:12:00.904Z,140
2018-12-11T13:13:01.266Z,144
2018-12-11T13:14:01.935Z,140
2018-12-11T13:15:07.019Z,144
2018-12-11T13:16:01.337Z,144
2018-12-11T13:17:01.530Z,156
2018-12-11T13:18:00.858Z,148
2018-12-11T13:19:01.409Z,140
2018-12-11T13:20:01.416Z,160
2018-12-11T13:21:01.312Z,152
2018-12-11T13:22:01.252Z,160
2018-12-11T13:23:01.383Z,156
2018-12-11T13:24:01.603Z,148
2018-12-11T13:25:00.852Z,136
2018-12-11T13:26:02.055Z,140
2018-12-11T13:27:01.453Z,116
2018-12-11T13:28:02.318Z,128
2018-12-11T13:29:01.028Z,140
2018-12-11T13:30:01.694Z,124
2018-12-11T13:31:01.068Z,140
2018-12-11T13:32:01.489Z,140
2018-12-11T13:33:00.972Z,120
2018-12-11T13:34:01.081Z,120
2018-12-11T13:35:01.063Z,140
2018-12-11T13:36:01.254Z,136
2018-12-11T13:37:01.562Z,136
2018-12-11T13:38:01.731Z,128
2018-12-11T13:39:02.102Z,120
2018-12-11T13:40:01.453Z,108
2018-12-11T13:41:01.113Z,108
2018-12-11T13:42:01.283Z,96
2018-12-11T13:43:01.734Z,96
2018-12-11T13:44:01.893Z,92
2018-12-11T13:45:01.556Z,100
2018-12-11T13:46:02.155Z,96
2018-12-11T13:47:01.484Z,120
2018-12-11T13:48:01.563Z,112
2018-12-11T13:49:01.547Z,96
2018-12-11T13:50:02.123Z,88
2018-12-11T13:51:01.424Z,92
2018-12-11T13:52:02.137Z,116
2018-12-11T13:53:01.798Z,128
2018-12-11T13:54:01.611Z,128
2018-12-11T13:55:03.074Z,144
2018-12-11T13:56:01.798Z,132
2018-12-11T13:57:02.570Z,104
2018-12-11T13:58:02.805Z,100
2018-12-11T13:59:01.779Z,100
2018-12-11T14:01:01.755Z,96
2018-12-11T14:02:01.857Z,96
2018-12-11T14:03:01.821Z,112
2018-12-11T14:04:01.881Z,104
2018-12-11T14:05:01.363Z,120
2018-12-11T14:06:02.132Z,128
2018-12-11T14:07:02.116Z,112
2018-12-11T14:08:02.154Z,100
2018-12-11T14:09:02.605Z,76
2018-12-11T14:10:03.154Z,76
2018-12-11T14:11:03.054Z,76
2018-12-11T14:12:03.081Z,72
2018-12-11T14:13:03.253Z,88
2018-12-11T14:14:03.486Z,84
2018-12-11T14:15:03.951Z,76
2018-12-11T14:16:04.448Z,76
2018-12-11T14:17:04.339Z,68
2018-12-11T14:18:05.068Z,72
2018-12-11T14:19:04.800Z,68
2018-12-11T14:20:05.936Z,76
2018-12-11T14:21:05.528Z,80
2018-12-11T14:22:05.566Z,84
2018-12-11T14:23:05.397Z,64
2018-12-11T14:24:05.617Z,68
2018-12-11T14:25:05.411Z,60
2018-12-11T14:26:05.876Z,72
2018-12-11T14:27:07.029Z,64
2018-12-11T14:28:07.050Z,68
2018-12-11T14:29:07.059Z,60
2018-12-11T14:30:13.290Z,56
2018-12-11T14:31:07.097Z,60
2018-12-11T14:32:06.941Z,64
2018-12-11T14:33:07.137Z,56
2018-12-11T14:34:07.603Z,52
2018-12-11T14:35:07.630Z,44
2018-12-11T14:36:07.643Z,44
2018-12-11T14:37:07.663Z,40
2018-12-11T14:38:07.702Z,36
2018-12-11T14:39:07.725Z,32
2018-12-11T14:40:07.498Z,28
2018-12-11T14:41:07.696Z,28
2018-12-11T14:42:08.411Z,28
2018-12-11T14:43:08.433Z,28
2018-12-11T14:44:08.438Z,28
2018-12-11T14:45:08.981Z,24
2018-12-11T14:46:08.486Z,24
2018-12-11T14:47:09.183Z,16
2018-12-11T14:48:08.684Z,20
2018-12-11T14:49:09.231Z,16
2018-12-11T14:50:09.948Z,16
2018-12-11T14:51:09.730Z,12
2018-12-11T14:52:09.707Z,12
2018-12-11T14:53:09.518Z,12
2018-12-11T14:54:09.484Z,12
2018-12-11T14:55:09.752Z,8
2018-12-11T14:56:09.921Z,12
2018-12-11T14:57:09.970Z,8
2018-12-11T14:58:09.984Z,4
2018-12-11T14:59:10.018Z,4
2018-12-11T15:00:10.153Z,8
2018-12-11T15:01:11.713Z,4
2018-12-11T15:02:11.002Z,4
2018-12-11T15:03:10.832Z,4
2018-12-11T15:04:10.744Z,4
2018-12-11T15:05:09.928Z,4
2018-12-11T15:06:10.879Z,4
2018-12-11T15:07:10.696Z,4
2018-12-11T15:08:11.120Z,4
2018-12-11T15:09:11.246Z,0
2018-12-11T15:10:10.378Z,0
2018-12-11T15:11:10.986Z,0
2018-12-11T15:12:12.699Z,0
2018-12-11T15:13:10.862Z,0
2018-12-11T15:14:11.892Z,4
2018-12-11T15:15:11.994Z,4
2018-12-11T15:16:11.338Z,0
2018-12-11T15:17:11.676Z,0
2018-12-11T15:18:13.571Z,0
2018-12-11T15:19:14.259Z,0
2018-12-11T15:20:10.574Z,0
2018-12-11T15:21:10.815Z,0
2018-12-11T15:22:10.749Z,0
2018-12-11T15:23:11.880Z,0
2018-12-11T15:24:12.575Z,0
2018-12-11T15:25:12.817Z,0
2018-12-11T15:26:13.222Z,0
2018-12-11T15:27:11.467Z,0
2018-12-11T15:28:11.739Z,0
2018-12-11T15:29:11.755Z,0
2018-12-11T15:30:12.115Z,0
2018-12-11T15:31:13.314Z,0
2018-12-11T15:32:12.982Z,0
2018-12-11T15:33:12.210Z,0
2018-12-11T15:34:13.173Z,0
2018-12-11T15:35:11.980Z,0
2018-12-11T15:36:12.021Z,0
2018-12-11T15:37:13.755Z,0
2018-12-11T15:38:12.957Z,0
2018-12-11T15:39:13.139Z,0
2018-12-11T15:40:11.752Z,0
2018-12-11T15:41:12.792Z,0
2018-12-11T15:42:12.807Z,0
2018-12-11T15:43:12.964Z,0
2018-12-11T15:44:13.054Z,0
2018-12-11T15:45:12.826Z,0
2018-12-11T15:46:15.068Z,0
2018-12-11T15:47:15.567Z,0
2018-12-11T15:48:14.312Z,0
2018-12-11T15:49:13.079Z,0
2018-12-11T15:50:13.471Z,0
2018-12-11T15:51:12.425Z,0
2018-12-11T15:52:15.495Z,0
2018-12-11T15:53:12.751Z,0
2018-12-11T15:54:12.411Z,0
2018-12-11T15:55:12.045Z,0
2018-12-11T15:56:12.605Z,0
2018-12-11T15:57:16.477Z,0
2018-12-11T15:58:15.860Z,0
2018-12-11T15:59:25.992Z,0
2018-12-11T16:00:12.447Z,0
2018-12-11T16:01:22.029Z,0
2018-12-11T16:02:14.177Z,0
2018-12-11T16:03:12.825Z,0
2018-12-11T16:04:12.880Z,0
2018-12-11T16:05:13.098Z,0
2018-12-11T16:06:15.470Z,0
2018-12-11T16:07:22.348Z,0
2018-12-11T16:08:13.718Z,0
2018-12-11T16:09:14.075Z,0
2018-12-11T16:10:13.820Z,0
2018-12-11T16:11:13.597Z,0
2018-12-11T16:12:16.566Z,0
2018-12-11T16:13:14.072Z,0
2018-12-11T16:14:13.879Z,0
2018-12-11T16:15:13.896Z,0
2018-12-11T16:16:12.963Z,0
2018-12-11T16:17:14.487Z,0
2018-12-11T16:18:13.362Z,0
2018-12-11T16:19:18.114Z,0
2018-12-11T16:20:13.866Z,0
2018-12-11T16:21:16.051Z,0
2018-12-11T16:22:16.399Z,0
2018-12-11T16:23:15.619Z,0
2018-12-11T16:24:15.286Z,0
2018-12-11T16:25:15.381Z,0
2018-12-11T16:26:14.506Z,0
2018-12-11T16:27:15.210Z,0
2018-12-11T16:28:14.200Z,0
2018-12-11T16:29:13.825Z,0
2018-12-11T16:30:14.168Z,0
2018-12-11T16:31:13.306Z,0
2018-12-11T16:32:12.950Z,0
2018-12-11T16:33:12.883Z,0
2018-12-11T16:34:13.639Z,0
2018-12-11T16:35:15.489Z,0
2018-12-11T16:36:13.989Z,0
2018-12-11T16:37:13.406Z,0
2018-12-11T16:38:13.183Z,0
2018-12-11T16:39:14.250Z,0
2018-12-11T16:40:13.681Z,0
2018-12-11T16:41:13.665Z,0
2018-12-11T16:42:13.365Z,0
2018-12-11T16:43:13.437Z,0
2018-12-11T16:44:12.628Z,0
2018-12-11T16:45:13.378Z,0
2018-12-11T16:46:13.830Z,0
2018-12-11T16:47:18.407Z,0
2018-12-11T16:48:15.993Z,0
2018-12-11T16:49:14.591Z,0
2018-12-11T16:50:13.927Z,0
2018-12-11T16:51:13.575Z,0
2018-12-11T16:52:13.621Z,0
2018-12-11T16:53:13.628Z,0
2018-12-11T16:54:15.027Z,0
2018-12-11T16:55:15.846Z,0
2018-12-11T16:56:14.294Z,0
2018-12-11T16:57:15.351Z,0
2018-12-11T16:58:14.074Z,0
2018-12-11T16:59:15.917Z,0
2018-12-11T17:01:13.763Z,0
2018-12-11T17:02:13.902Z,0
2018-12-11T17:03:13.476Z,0
2018-12-11T17:04:13.867Z,0
2018-12-11T17:05:14.270Z,0
2018-12-11T17:06:14.664Z,0
2018-12-11T17:07:15.021Z,0
2018-12-11T17:08:15.114Z,0
2018-12-11T17:09:15.758Z,0
2018-12-11T17:10:16.029Z,0
2018-12-11T17:11:16.119Z,0
2018-12-11T17:12:15.684Z,0
2018-12-11T17:13:15.635Z,0
2018-12-11T17:14:15.836Z,0
2018-12-11T17:15:16.789Z,0
2018-12-11T17:16:16.375Z,0
2018-12-11T17:17:17.414Z,0
2018-12-11T17:18:16.913Z,0
2018-12-11T17:19:16.969Z,0
2018-12-11T17:20:17.797Z,0
2018-12-11T17:21:18.278Z,0
2018-12-11T17:22:17.777Z,0
2018-12-11T17:23:18.228Z,0
2018-12-11T17:24:18.011Z,0
2018-12-11T17:25:18.562Z,0
2018-12-11T17:26:18.300Z,0
2018-12-11T17:27:18.350Z,0
2018-12-11T17:28:18.037Z,0
2018-12-11T17:29:23.933Z,0
2018-12-11T17:30:18.253Z,0
2018-12-11T17:31:18.931Z,0
2018-12-11T17:32:18.264Z,0
2018-12-11T17:33:18.208Z,0
2018-12-11T17:34:18.566Z,0
2018-12-11T17:35:18.487Z,0
2018-12-11T17:36:18.333Z,0
2018-12-11T17:37:18.686Z,0
2018-12-11T17:38:18.517Z,0
2018-12-11T17:39:18.359Z,0
2018-12-11T17:40:18.212Z,0
2018-12-11T17:41:18.652Z,0
2018-12-11T17:42:18.417Z,0
2018-12-11T17:43:18.950Z,0
2018-12-11T17:44:18.434Z,0
2018-12-11T17:45:18.709Z,0
2018-12-11T17:46:18.616Z,0
2018-12-11T17:47:18.241Z,0
2018-12-11T17:48:19.265Z,0
2018-12-11T17:49:19.173Z,0
2018-12-11T17:50:19.190Z,0
2018-12-11T17:51:18.960Z,0
2018-12-11T17:52:19.068Z,0
2018-12-11T17:53:19.338Z,0
2018-12-11T17:54:19.414Z,0
2018-12-11T17:55:19.754Z,0
2018-12-11T17:56:19.516Z,0
2018-12-11T17:57:19.655Z,0
2018-12-11T17:58:20.062Z,0
2018-12-11T17:59:20.467Z,0
2018-12-11T18:00:21.456Z,0
2018-12-11T18:01:21.142Z,0
2018-12-11T18:02:21.839Z,0
2018-12-11T18:03:21.559Z,0
2018-12-11T18:04:21.620Z,0
2018-12-11T18:05:21.246Z,0
2018-12-11T18:06:21.787Z,0
2018-12-11T18:07:22.598Z,0
2018-12-11T18:08:22.341Z,0
2018-12-11T18:09:22.700Z,0
2018-12-11T18:10:22.406Z,0
2018-12-11T18:11:22.692Z,0
2018-12-11T18:12:22.710Z,0
2018-12-11T18:13:22.742Z,0
2018-12-11T18:14:22.522Z,0
2018-12-11T18:15:22.779Z,0
2018-12-11T18:16:22.538Z,0
2018-12-11T18:17:22.391Z,0
2018-12-11T18:18:23.124Z,0
2018-12-11T18:19:23.409Z,0
2018-12-11T18:20:23.446Z,0
2018-12-11T18:21:23.465Z,0
2018-12-11T18:22:23.205Z,0
2018-12-11T18:23:23.896Z,0
2018-12-11T18:24:23.925Z,0
2018-12-11T18:25:23.967Z,0
2018-12-11T18:26:24.428Z,0
2018-12-11T18:27:23.853Z,0
2018-12-11T18:28:24.434Z,0
2018-12-11T18:29:24.430Z,0
2018-12-11T18:30:24.514Z,0
2018-12-11T18:31:24.253Z,0
2018-12-11T18:32:29.989Z,0
2018-12-11T18:33:24.598Z,0
2018-12-11T18:34:24.057Z,0
2018-12-11T18:35:24.758Z,0
2018-12-11T18:36:25.184Z,0
2018-12-11T18:37:25.368Z,0
2018-12-11T18:38:25.678Z,0
2018-12-11T18:39:25.431Z,0
2018-12-11T18:40:25.421Z,0
2018-12-11T18:41:25.939Z,0
2018-12-11T18:42:25.906Z,0
2018-12-11T18:43:26.013Z,0
2018-12-11T18:44:25.960Z,0
2018-12-11T18:45:25.694Z,0
2018-12-11T18:46:25.429Z,0
2018-12-11T18:47:26.437Z,0
2018-12-11T18:48:26.463Z,0
2018-12-11T18:49:26.491Z,0
2018-12-11T18:50:29.578Z,0
2018-12-11T18:51:29.331Z,0
2018-12-11T18:52:29.073Z,0
2018-12-11T18:53:29.368Z,0
2018-12-11T18:54:29.108Z,0
2018-12-11T18:55:29.846Z,0
2018-12-11T18:56:29.863Z,0
2018-12-11T18:57:30.390Z,0
2018-12-11T18:58:36.887Z,0
2018-12-11T18:59:30.474Z,0
2018-12-11T19:00:31.195Z,0
2018-12-11T19:01:31.349Z,0
2018-12-11T19:02:30.721Z,0
2018-12-11T19:03:30.909Z,0
2018-12-11T19:04:31.919Z,0
2018-12-11T19:05:31.965Z,0
2018-12-11T19:06:31.420Z,0
2018-12-11T19:07:31.902Z,0
2018-12-11T19:08:31.944Z,0
2018-12-11T19:09:32.179Z,0
2018-12-11T19:10:32.649Z,0
2018-12-11T19:11:33.452Z,0
2018-12-11T19:12:33.452Z,0
2018-12-11T19:13:33.191Z,0
2018-12-11T19:14:33.540Z,0
2018-12-11T19:15:33.522Z,0
2018-12-11T19:16:33.285Z,0
2018-12-11T19:17:34.025Z,0
2018-12-11T19:18:33.787Z,0
2018-12-11T19:19:33.792Z,0
2018-12-11T19:20:33.861Z,0
2018-12-11T19:21:33.844Z,0
2018-12-11T19:22:33.886Z,0
2018-12-11T19:23:34.633Z,0
2018-12-11T19:24:34.663Z,0
2018-12-11T19:25:34.676Z,0
2018-12-11T19:26:34.342Z,0
2018-12-11T19:27:35.110Z,0
2018-12-11T19:28:35.604Z,0
2018-12-11T19:29:35.907Z,0
2018-12-11T19:30:35.664Z,0
2018-12-11T19:31:35.994Z,0
2018-12-11T19:32:36.054Z,0
2018-12-11T19:33:36.002Z,0
2018-12-11T19:34:35.790Z,0
2018-12-11T19:35:40.068Z,0
2018-12-11T19:36:36.275Z,0
2018-12-11T19:37:36.104Z,0
2018-12-11T19:38:36.140Z,0
2018-12-11T19:39:35.879Z,0
2018-12-11T19:40:44.038Z,0
2018-12-11T19:41:36.660Z,0
2018-12-11T19:42:36.704Z,0
2018-12-11T19:43:36.414Z,0
2018-12-11T19:44:36.725Z,0
2018-12-11T19:45:36.752Z,0
2018-12-11T19:46:37.172Z,0
2018-12-11T19:47:36.990Z,0
2018-12-11T19:48:37.287Z,0
2018-12-11T19:49:37.514Z,0
2018-12-11T19:50:37.406Z,0
2018-12-11T19:51:37.360Z,0
2018-12-11T19:52:42.423Z,0
2018-12-11T19:53:37.405Z,0
2018-12-11T19:54:37.215Z,0
2018-12-11T19:55:37.663Z,0
2018-12-11T19:56:37.198Z,0
2018-12-11T19:57:37.503Z,0
2018-12-11T19:58:37.250Z,0
2018-12-11T19:59:37.273Z,0
2018-12-11T20:00:38.669Z,0
2018-12-11T20:01:40.175Z,0
